createdAt,value
2022-12-15T00:02:36.536Z,31.50
2022-12-15T00:05:23.916Z,31.70
2022-12-15T00:08:12.826Z,31.60
2022-12-15T00:10:59.574Z,29.90
2022-12-15T00:13:46.243Z,31.70
2022-12-15T00:16:33.210Z,32.60
2022-12-15T00:19:19.789Z,32.00
2022-12-15T00:22:06.674Z,33.50
2022-12-15T00:24:54.139Z,33.60
2022-12-15T00:27:41.248Z,33.70
2022-12-15T00:30:29.867Z,34.70
2022-12-15T00:33:16.791Z,32.50
2022-12-15T00:36:03.621Z,32.50
2022-12-15T00:38:44.439Z,33.40
2022-12-15T00:41:17.903Z,34.90
2022-12-15T00:43:46.566Z,32.30
2022-12-15T00:46:33.830Z,33.20
2022-12-15T00:49:03.477Z,33.30
2022-12-15T00:51:50.404Z,32.10
2022-12-15T00:54:37.339Z,31.10
2022-12-15T00:57:24.331Z,33.90
2022-12-15T01:00:11.254Z,31.20
2022-12-15T01:02:58.243Z,34.50
2022-12-15T01:05:45.356Z,30.90
2022-12-15T01:08:32.223Z,33.60
2022-12-15T01:11:19.820Z,33.80
2022-12-15T01:14:08.323Z,31.00
2022-12-15T01:16:55.155Z,31.80
2022-12-15T01:19:42.101Z,32.30
2022-12-15T01:22:10.523Z,32.20
2022-12-15T01:24:38.716Z,31.20
2022-12-15T01:27:06.936Z,28.30
2022-12-15T01:29:35.222Z,32.50
2022-12-15T01:32:03.387Z,32.60
2022-12-15T01:34:31.721Z,33.30
2022-12-15T01:37:00.006Z,30.50
2022-12-15T01:39:51.380Z,33.00
2022-12-15T01:42:19.781Z,30.40
2022-12-15T01:44:51.354Z,29.90
2022-12-15T01:47:24.941Z,29.10
2022-12-15T01:49:54.627Z,30.00
2022-12-15T01:52:22.692Z,28.30
2022-12-15T01:54:55.719Z,26.80
2022-12-15T01:57:31.739Z,28.90
2022-12-15T02:00:02.736Z,26.80
2022-12-15T02:03:08.185Z,26.00
2022-12-15T02:05:37.248Z,27.50
2022-12-15T02:08:07.306Z,29.50
2022-12-15T02:10:45.355Z,28.70
2022-12-15T02:13:25.656Z,27.60
2022-12-15T02:16:19.028Z,27.60
2022-12-15T02:19:09.234Z,26.60
2022-12-15T02:22:02.853Z,24.90
2022-12-15T02:24:46.002Z,25.60
2022-12-15T02:28:13.905Z,24.40
2022-12-15T02:31:09.826Z,24.00
2022-12-15T02:33:45.172Z,23.00
2022-12-15T02:36:29.226Z,25.00
2022-12-15T02:38:57.687Z,25.10
2022-12-15T02:41:53.159Z,28.30
2022-12-15T02:44:30.714Z,23.20
2022-12-15T02:47:16.901Z,26.00
2022-12-15T02:50:12.910Z,22.00
2022-12-15T02:52:50.112Z,25.90
2022-12-15T02:55:55.839Z,25.60
2022-12-15T02:58:42.449Z,23.90
2022-12-15T03:01:22.340Z,25.60
2022-12-15T03:03:52.044Z,23.70
2022-12-15T03:06:20.500Z,24.20
2022-12-15T03:08:48.637Z,23.70
2022-12-15T03:11:17.312Z,22.90
2022-12-15T03:13:45.438Z,25.40
2022-12-15T03:16:13.815Z,25.70
2022-12-15T03:18:44.911Z,25.00
2022-12-15T03:21:13.449Z,24.70
2022-12-15T03:23:41.797Z,23.90
2022-12-15T03:26:10.071Z,23.30
2022-12-15T03:28:38.246Z,24.10
2022-12-15T03:31:06.477Z,22.10
2022-12-15T03:33:35.258Z,24.30
2022-12-15T03:36:03.761Z,23.80
2022-12-15T03:38:31.999Z,22.80
2022-12-15T03:41:00.158Z,24.40
2022-12-15T03:43:28.943Z,24.00
2022-12-15T03:45:58.057Z,25.70
2022-12-15T03:48:26.469Z,24.00
2022-12-15T03:50:55.289Z,23.00
2022-12-15T03:53:23.466Z,21.80
2022-12-15T03:55:51.881Z,22.70
2022-12-15T03:58:19.976Z,23.30
2022-12-15T04:00:48.681Z,23.00
2022-12-15T04:03:16.963Z,21.80
2022-12-15T04:05:45.205Z,21.70
2022-12-15T04:08:13.488Z,18.80
2022-12-15T04:10:43.636Z,19.90
2022-12-15T04:13:12.010Z,21.40
2022-12-15T04:15:41.039Z,19.90
2022-12-15T04:18:10.997Z,21.70
2022-12-15T04:20:40.271Z,18.10
2022-12-15T04:23:08.606Z,18.70
2022-12-15T04:25:56.570Z,20.80
2022-12-15T04:28:43.233Z,20.80
2022-12-15T04:31:45.997Z,19.90
2022-12-15T04:34:36.652Z,20.70
2022-12-15T04:37:26.467Z,20.80
2022-12-15T04:40:14.077Z,21.30
2022-12-15T04:43:05.746Z,19.80
2022-12-15T04:45:52.620Z,19.50
2022-12-15T04:48:39.262Z,20.40
2022-12-15T04:51:26.458Z,18.00
2022-12-15T04:54:13.342Z,16.80
2022-12-15T04:57:00.282Z,17.90
2022-12-15T04:59:47.156Z,18.30
2022-12-15T05:02:34.006Z,20.40
2022-12-15T05:05:23.879Z,17.20
2022-12-15T05:08:10.959Z,18.00
2022-12-15T05:10:57.490Z,19.20
2022-12-15T05:13:44.964Z,20.10
2022-12-15T05:16:31.572Z,19.90
2022-12-15T05:19:18.528Z,18.80
2022-12-15T05:22:05.801Z,19.60
2022-12-15T05:24:52.776Z,20.80
2022-12-15T05:27:39.533Z,21.90
2022-12-15T05:30:27.039Z,20.70
2022-12-15T05:32:55.371Z,20.30
2022-12-15T05:35:23.681Z,22.10
2022-12-15T05:37:51.918Z,22.80
2022-12-15T05:40:20.175Z,25.60
2022-12-15T05:42:49.935Z,24.50
2022-12-15T05:45:18.634Z,25.10
2022-12-15T05:47:51.652Z,25.20
2022-12-15T05:50:20.382Z,26.70
2022-12-15T05:52:51.629Z,27.20
2022-12-15T05:55:19.844Z,25.90
2022-12-15T05:57:55.076Z,27.90
2022-12-15T06:00:23.470Z,25.80
2022-12-15T06:02:51.610Z,24.60
2022-12-15T06:05:20.190Z,26.50
2022-12-15T06:07:48.496Z,28.20
2022-12-15T06:10:16.512Z,24.90
2022-12-15T06:12:44.776Z,28.60
2022-12-15T06:15:13.089Z,29.70
2022-12-15T06:17:41.244Z,31.40
2022-12-15T06:20:09.816Z,28.20
2022-12-15T06:22:38.358Z,29.20
2022-12-15T06:25:06.859Z,31.50
2022-12-15T06:27:37.058Z,30.40
2022-12-15T06:30:06.111Z,31.20
2022-12-15T06:32:35.909Z,31.30
2022-12-15T06:35:04.561Z,29.90
2022-12-15T06:37:32.926Z,30.90
2022-12-15T06:40:01.001Z,29.60
2022-12-15T06:42:29.270Z,30.40
2022-12-15T06:44:57.439Z,27.90
2022-12-15T06:47:25.518Z,32.40
2022-12-15T06:49:54.138Z,31.70
2022-12-15T06:52:22.426Z,32.00
2022-12-15T06:54:50.633Z,32.50
2022-12-15T06:57:18.850Z,33.30
2022-12-15T06:59:47.270Z,32.10
2022-12-15T07:02:17.381Z,31.10
2022-12-15T07:04:46.820Z,33.70
2022-12-15T07:07:15.393Z,34.40
2022-12-15T07:09:43.527Z,33.00
2022-12-15T07:12:12.775Z,32.30
2022-12-15T07:14:41.150Z,33.00
2022-12-15T07:17:11.218Z,32.40
2022-12-15T07:19:39.488Z,32.70
2022-12-15T07:22:07.727Z,31.40
2022-12-15T07:24:35.814Z,30.90
2022-12-15T07:27:04.118Z,31.10
2022-12-15T07:29:32.275Z,34.40
2022-12-15T07:32:02.018Z,34.20
2022-12-15T07:34:30.341Z,34.10
2022-12-15T07:36:59.425Z,34.40
2022-12-15T07:39:27.849Z,34.00
2022-12-15T07:41:56.125Z,35.70
2022-12-15T07:44:24.563Z,37.60
2022-12-15T07:46:52.705Z,34.60
2022-12-15T07:49:21.669Z,33.70
2022-12-15T07:51:49.967Z,35.60
2022-12-15T07:54:18.216Z,33.50
2022-12-15T07:56:50.379Z,32.80
2022-12-15T07:59:19.901Z,34.60
2022-12-15T08:01:48.295Z,37.50
2022-12-15T08:04:16.684Z,38.20
2022-12-15T08:06:46.016Z,35.90
2022-12-15T08:09:14.172Z,37.40
2022-12-15T08:11:43.233Z,35.10
2022-12-15T08:14:16.968Z,36.10
2022-12-15T08:16:46.087Z,36.40
2022-12-15T08:19:15.554Z,36.30
2022-12-15T08:21:48.471Z,35.40
2022-12-15T08:24:17.486Z,36.80
2022-12-15T08:26:49.950Z,36.20
2022-12-15T08:32:07.728Z,36.50
2022-12-15T08:34:36.037Z,37.50
2022-12-15T08:37:04.374Z,39.50
2022-12-15T08:39:32.493Z,38.90
2022-12-15T08:42:01.020Z,38.80
2022-12-15T08:44:29.183Z,36.90
2022-12-15T08:46:57.249Z,37.40
2022-12-15T08:49:26.065Z,35.40
2022-12-15T08:51:54.176Z,35.80
2022-12-15T08:54:22.337Z,36.30
2022-12-15T08:56:50.946Z,34.10
2022-12-15T08:59:19.531Z,37.20
2022-12-15T09:01:48.212Z,35.90
2022-12-15T09:04:18.106Z,38.00
2022-12-15T09:06:50.612Z,35.70
2022-12-15T09:09:19.987Z,37.70
2022-12-15T09:11:48.706Z,38.00
2022-12-15T09:14:18.973Z,39.00
2022-12-15T09:16:50.499Z,39.20
2022-12-15T09:19:19.326Z,35.30
2022-12-15T09:21:48.367Z,37.30
2022-12-15T09:24:26.084Z,35.40
2022-12-15T09:27:00.679Z,38.50
2022-12-15T09:29:29.177Z,35.90
2022-12-15T09:31:57.338Z,36.50
2022-12-15T09:34:27.099Z,37.50
2022-12-15T09:36:55.676Z,35.60
2022-12-15T09:39:23.809Z,37.50
2022-12-15T09:41:55.869Z,38.80
2022-12-15T09:44:26.246Z,39.10
2022-12-15T09:47:12.432Z,35.20
2022-12-15T09:49:49.970Z,37.00
2022-12-15T09:52:22.716Z,37.60
2022-12-15T09:54:51.388Z,36.60
2022-12-15T09:57:23.883Z,38.60
2022-12-15T10:00:06.435Z,36.90
2022-12-15T10:03:15.112Z,37.80
2022-12-15T10:06:21.081Z,37.30
2022-12-15T10:09:00.687Z,37.80
2022-12-15T10:11:34.808Z,40.20
2022-12-15T10:14:11.769Z,38.40
2022-12-15T10:16:47.908Z,37.80
2022-12-15T10:19:37.053Z,40.90
2022-12-15T10:22:05.625Z,37.80
2022-12-15T10:27:56.902Z,38.00
2022-12-15T10:30:25.353Z,38.40
2022-12-15T10:33:09.524Z,41.20
2022-12-15T10:35:39.807Z,37.10
2022-12-15T10:38:21.395Z,37.60
2022-12-15T10:40:59.446Z,33.50
2022-12-15T10:43:39.714Z,36.30
2022-12-15T10:46:11.110Z,37.50
2022-12-15T10:48:41.384Z,38.20
2022-12-15T10:51:15.688Z,38.70
2022-12-15T10:53:51.377Z,36.80
2022-12-15T10:56:32.363Z,37.80
2022-12-15T10:59:21.398Z,36.70
2022-12-15T11:01:50.812Z,34.30
2022-12-15T11:04:31.502Z,34.80
2022-12-15T11:07:02.720Z,35.60
2022-12-15T11:09:39.313Z,36.20
2022-12-15T11:12:37.870Z,35.90
2022-12-15T11:15:32.521Z,35.10
2022-12-15T11:18:29.495Z,36.10
2022-12-15T11:21:02.931Z,36.40
2022-12-15T11:23:52.257Z,38.50
2022-12-15T11:26:26.690Z,37.00
2022-12-15T11:29:01.381Z,37.20
2022-12-15T11:31:38.618Z,37.60
2022-12-15T11:34:31.153Z,36.50
2022-12-15T11:37:10.511Z,38.00
2022-12-15T11:39:44.264Z,36.20
2022-12-15T11:42:13.911Z,37.90
2022-12-15T11:44:58.775Z,39.00
2022-12-15T11:47:30.035Z,37.50
2022-12-15T11:53:09.958Z,38.30
2022-12-15T11:56:08.548Z,34.70
2022-12-15T11:59:04.962Z,37.10
2022-12-15T12:01:46.974Z,35.90
2022-12-15T12:04:26.261Z,35.60
2022-12-15T12:07:16.422Z,37.40
2022-12-15T12:10:18.960Z,36.00
2022-12-15T12:12:57.077Z,36.50
2022-12-15T12:15:25.577Z,34.60
2022-12-15T12:17:58.944Z,32.20
2022-12-15T12:20:40.056Z,32.50
2022-12-15T12:23:24.314Z,33.20
2022-12-15T12:26:11.688Z,35.60
2022-12-15T12:29:00.183Z,34.50
2022-12-15T12:31:52.201Z,35.00
2022-12-15T12:34:29.585Z,34.60
2022-12-15T12:37:28.331Z,37.00
2022-12-15T12:40:02.534Z,34.80
2022-12-15T12:42:49.613Z,35.70
2022-12-15T12:45:20.252Z,35.20
2022-12-15T12:47:53.389Z,35.80
2022-12-15T12:50:25.925Z,36.10
2022-12-15T12:53:03.466Z,37.20
2022-12-15T12:55:41.301Z,36.50
2022-12-15T12:58:42.774Z,33.00
2022-12-15T13:01:10.917Z,33.20
2022-12-15T13:03:41.713Z,34.50
2022-12-15T13:06:41.691Z,34.70
2022-12-15T13:09:21.748Z,33.70
2022-12-15T13:11:51.322Z,32.30
2022-12-15T13:14:36.409Z,33.20
2022-12-15T13:17:27.225Z,34.20
2022-12-15T13:19:58.606Z,32.50
2022-12-15T13:22:30.286Z,30.90
2022-12-15T13:24:58.603Z,30.90
2022-12-15T13:27:38.537Z,30.20
2022-12-15T13:30:09.333Z,28.80
2022-12-15T13:32:55.608Z,25.70
2022-12-15T13:35:31.442Z,23.00
2022-12-15T13:38:03.905Z,22.60
2022-12-15T13:40:51.910Z,23.60
2022-12-15T13:43:32.394Z,23.60
2022-12-15T13:46:33.482Z,23.20
2022-12-15T13:49:27.744Z,23.60
2022-12-15T13:52:03.432Z,25.00
2022-12-15T13:54:35.744Z,23.20
2022-12-15T13:57:14.473Z,18.60
2022-12-15T13:59:49.459Z,19.80
2022-12-15T14:02:29.682Z,18.80
2022-12-15T14:05:22.811Z,16.80
2022-12-15T14:07:58.284Z,19.80
2022-12-15T14:10:33.549Z,20.70
2022-12-15T14:13:16.171Z,23.00
2022-12-15T14:15:52.602Z,19.40
2022-12-15T14:18:33.320Z,20.50
2022-12-15T14:21:06.526Z,20.70
2022-12-15T14:24:11.426Z,19.70
2022-12-15T14:26:33.762Z,16.30
2022-12-15T14:29:05.663Z,17.90
2022-12-15T14:31:37.330Z,19.10
2022-12-15T14:34:30.577Z,17.30
2022-12-15T14:37:03.581Z,14.80
2022-12-15T14:39:45.047Z,18.00
2022-12-15T14:42:23.812Z,18.70
2022-12-15T14:44:57.690Z,20.30
2022-12-15T14:47:34.733Z,18.90
2022-12-15T14:50:09.663Z,18.30
2022-12-15T14:52:42.071Z,23.80
2022-12-15T14:55:32.303Z,21.70
2022-12-15T14:58:01.613Z,21.50
2022-12-15T15:00:34.035Z,20.70
2022-12-15T15:03:25.519Z,19.70
2022-12-15T15:05:57.578Z,20.00
2022-12-15T15:08:32.884Z,23.40
2022-12-15T15:11:19.726Z,21.30
2022-12-15T15:13:48.409Z,20.60
2022-12-15T15:16:19.314Z,19.40
2022-12-15T15:18:53.270Z,21.40
2022-12-15T15:21:25.385Z,18.50
2022-12-15T15:24:11.932Z,19.10
2022-12-15T15:26:40.463Z,18.90
2022-12-15T15:29:32.546Z,19.10
2022-12-15T15:32:22.688Z,20.50
2022-12-15T15:34:51.395Z,20.60
2022-12-15T15:37:29.351Z,19.90
2022-12-15T15:39:57.451Z,22.10
2022-12-15T15:42:32.272Z,23.20
2022-12-15T15:45:01.427Z,21.70
2022-12-15T15:47:29.715Z,21.40
2022-12-15T15:49:59.828Z,21.30
2022-12-15T15:52:30.000Z,21.50
2022-12-15T15:54:59.396Z,23.00
2022-12-15T15:57:27.494Z,22.40
2022-12-15T15:59:56.043Z,21.30
2022-12-15T16:02:24.411Z,20.10
2022-12-15T16:04:52.639Z,21.00
2022-12-15T16:07:27.915Z,20.00
2022-12-15T16:09:56.925Z,18.30
2022-12-15T16:12:36.480Z,20.30
2022-12-15T16:15:17.306Z,19.40
2022-12-15T16:17:46.971Z,20.90
2022-12-15T16:20:18.302Z,19.20
2022-12-15T16:22:51.445Z,18.30
2022-12-15T16:25:25.706Z,18.80
2022-12-15T16:27:54.298Z,19.70
2022-12-15T16:30:26.036Z,17.90
2022-12-15T16:32:56.321Z,18.90
2022-12-15T16:35:26.385Z,18.30
2022-12-15T16:37:54.937Z,16.30
2022-12-15T16:40:26.025Z,17.00
2022-12-15T16:45:29.073Z,16.10
2022-12-15T16:47:58.246Z,15.90
2022-12-15T16:50:38.399Z,16.70
2022-12-15T16:53:09.931Z,18.50
2022-12-15T16:55:40.053Z,19.90
2022-12-15T16:58:15.738Z,18.70
2022-12-15T17:00:44.958Z,19.30
2022-12-15T17:03:18.763Z,19.40
2022-12-15T17:05:52.431Z,17.80
2022-12-15T17:08:29.181Z,17.40
2022-12-15T17:10:57.687Z,18.70
2022-12-15T17:13:40.515Z,19.80
2022-12-15T17:16:14.381Z,18.80
2022-12-15T17:21:35.482Z,16.10
2022-12-15T17:24:12.570Z,18.60
2022-12-15T17:26:42.401Z,18.40
2022-12-15T17:29:20.287Z,17.30
2022-12-15T17:31:48.649Z,17.60
2022-12-15T17:34:27.921Z,18.20
2022-12-15T17:37:02.361Z,18.70
2022-12-15T17:39:32.640Z,19.40
2022-12-15T17:42:02.067Z,18.40
2022-12-15T17:44:36.224Z,24.00
2022-12-15T17:47:06.955Z,27.00
2022-12-15T17:49:38.368Z,40.30
2022-12-15T17:52:29.293Z,34.90
2022-12-15T17:54:57.941Z,31.00
2022-12-15T17:57:26.313Z,27.70
2022-12-15T17:59:54.389Z,28.30
2022-12-15T18:02:23.038Z,28.00
2022-12-15T18:04:51.630Z,26.40
2022-12-15T18:07:22.056Z,29.50
2022-12-15T18:09:52.265Z,30.70
2022-12-15T18:12:26.889Z,24.90
2022-12-15T18:14:56.908Z,24.00
2022-12-15T18:17:25.321Z,30.40
2022-12-15T18:19:53.535Z,33.60
2022-12-15T18:22:24.960Z,28.80
2022-12-15T18:24:54.596Z,28.60
2022-12-15T18:27:25.909Z,27.30
2022-12-15T18:29:54.562Z,22.00
2022-12-15T18:32:25.652Z,20.60
2022-12-15T18:34:55.106Z,19.90
2022-12-15T18:37:25.242Z,19.90
2022-12-15T18:39:54.228Z,19.50
2022-12-15T18:44:53.524Z,18.30
2022-12-15T18:47:23.758Z,19.70
2022-12-15T18:49:52.617Z,23.50
2022-12-15T18:52:23.287Z,23.60
2022-12-15T18:54:54.007Z,24.60
2022-12-15T18:57:30.092Z,24.40
2022-12-15T19:00:01.984Z,24.60
2022-12-15T19:02:33.525Z,28.30
2022-12-15T19:05:01.902Z,32.00
2022-12-15T19:07:30.483Z,24.80
2022-12-15T19:09:59.033Z,25.30
2022-12-15T19:12:27.194Z,25.90
2022-12-15T19:14:55.558Z,31.90
2022-12-15T19:17:43.279Z,31.10
2022-12-15T19:20:38.292Z,27.10
2022-12-15T19:23:07.226Z,31.10
2022-12-15T19:25:35.638Z,32.60
2022-12-15T19:28:04.363Z,32.90
2022-12-15T19:30:38.574Z,29.20
2022-12-15T19:33:08.473Z,28.70
2022-12-15T19:35:38.252Z,29.20
2022-12-15T19:38:07.880Z,28.80
2022-12-15T19:40:37.355Z,27.30
2022-12-15T19:43:05.754Z,25.30
2022-12-15T19:45:33.940Z,24.90
2022-12-15T19:48:02.191Z,26.70
2022-12-15T19:50:36.947Z,24.70
2022-12-15T19:53:27.487Z,24.90
2022-12-15T19:55:58.861Z,28.00
2022-12-15T19:58:32.710Z,27.00
2022-12-15T20:01:05.298Z,28.60
2022-12-15T20:03:37.795Z,28.50
2022-12-15T20:06:14.521Z,28.60
2022-12-15T20:08:45.957Z,25.50
2022-12-15T20:11:30.323Z,28.90
2022-12-15T20:13:59.042Z,29.10
2022-12-15T20:16:27.973Z,25.00
2022-12-15T20:18:56.224Z,29.40
2022-12-15T20:21:31.684Z,28.00
2022-12-15T20:24:05.370Z,27.10
2022-12-15T20:26:34.759Z,29.30
2022-12-15T20:29:03.053Z,28.20
2022-12-15T20:31:31.498Z,26.80
2022-12-15T20:33:59.733Z,23.10
2022-12-15T20:36:30.579Z,22.50
2022-12-15T20:38:58.703Z,24.00
2022-12-15T20:41:29.465Z,26.50
2022-12-15T20:43:58.905Z,22.90
2022-12-15T20:46:33.437Z,22.90
2022-12-15T20:49:02.288Z,23.90
2022-12-15T20:51:34.739Z,23.20
2022-12-15T20:54:02.989Z,20.70
2022-12-15T20:56:31.163Z,25.80
2022-12-15T20:58:59.611Z,27.10
2022-12-15T21:01:33.583Z,24.70
2022-12-15T21:04:10.556Z,24.90
2022-12-15T21:06:38.968Z,25.10
2022-12-15T21:09:13.510Z,24.10
2022-12-15T21:11:41.860Z,23.30
2022-12-15T21:14:17.547Z,23.70
2022-12-15T21:16:46.037Z,24.40
2022-12-15T21:19:23.263Z,25.70
2022-12-15T21:21:54.897Z,25.60
2022-12-15T21:24:28.639Z,21.60
2022-12-15T21:26:56.870Z,25.60
2022-12-15T21:29:27.887Z,25.70
2022-12-15T21:34:24.045Z,20.90
2022-12-15T21:36:55.305Z,22.00
2022-12-15T21:39:30.154Z,22.70
2022-12-15T21:42:13.227Z,22.30
2022-12-15T21:44:41.822Z,21.00
2022-12-15T21:47:23.996Z,24.50
2022-12-15T21:49:53.029Z,20.80
2022-12-15T21:54:53.696Z,25.30
2022-12-15T21:57:23.039Z,25.00
2022-12-15T21:59:51.084Z,27.30
2022-12-15T22:02:26.729Z,27.80
2022-12-15T22:04:55.719Z,30.50
2022-12-15T22:07:23.962Z,34.40
2022-12-15T22:09:52.198Z,36.50
2022-12-15T22:12:24.076Z,33.20
2022-12-15T22:14:52.259Z,30.00
2022-12-15T22:17:22.435Z,29.10
2022-12-15T22:19:50.762Z,29.80
2022-12-15T22:22:18.972Z,25.70
2022-12-15T22:24:48.274Z,24.90
2022-12-15T22:27:22.243Z,23.30
2022-12-15T22:29:50.641Z,26.40
2022-12-15T22:32:18.725Z,26.90
2022-12-15T22:34:46.791Z,28.10
2022-12-15T22:37:15.893Z,26.10
2022-12-15T22:39:43.981Z,26.70
2022-12-15T22:42:16.759Z,28.80
2022-12-15T22:44:45.495Z,26.20
2022-12-15T22:47:13.682Z,26.50
2022-12-15T22:49:42.289Z,26.70
2022-12-15T22:52:19.047Z,27.10
2022-12-15T22:54:47.872Z,26.30
2022-12-15T22:57:28.601Z,28.60
2022-12-15T23:00:04.131Z,30.50
2022-12-15T23:02:36.427Z,29.50
2022-12-15T23:05:06.037Z,29.10
2022-12-15T23:07:35.641Z,27.70
2022-12-15T23:10:23.507Z,28.80
2022-12-15T23:12:54.513Z,29.10
2022-12-15T23:18:10.982Z,29.40
2022-12-15T23:20:39.213Z,30.90
2022-12-15T23:23:08.418Z,32.60
2022-12-15T23:25:36.709Z,34.50
2022-12-15T23:28:05.437Z,34.60
2022-12-15T23:30:33.599Z,34.80
2022-12-15T23:33:01.989Z,34.00
2022-12-15T23:35:30.047Z,33.60
2022-12-15T23:37:58.716Z,30.40
2022-12-15T23:40:27.094Z,32.80
2022-12-15T23:42:55.581Z,33.20
2022-12-15T23:45:23.749Z,31.20
2022-12-15T23:47:52.001Z,31.30
2022-12-15T23:50:22.259Z,34.00
2022-12-15T23:52:51.461Z,31.90
2022-12-15T23:55:20.393Z,32.70
2022-12-15T23:57:48.595Z,34.00
